TimeCDT,TemperatureF,Dew PointF,Humidity,Sea Level PressureIn,VisibilityMPH,Wind Direction,Wind SpeedMPH,Gust SpeedMPH,PrecipitationIn,Events,Conditions,WindDirDegrees,DateUTC
12:51 AM,78.1,71.1,79,29.88,10.0,SSE,15.0,-,N/A,,Clear,150,2013-10-05 05:51:00
1:51 AM,78.1,72.0,81,29.87,10.0,SSE,12.7,-,N/A,,Mostly Cloudy,150,2013-10-05 06:51:00
2:51 AM,77.0,72.0,84,29.87,10.0,SSE,11.5,-,N/A,,Overcast,160,2013-10-05 07:51:00
3:51 AM,77.0,72.0,84,29.87,10.0,South,10.4,-,N/A,,Overcast,170,2013-10-05 08:51:00
4:43 AM,75.9,71.1,85,29.91,10.0,SSE,10.4,-,0.00,,Scattered Clouds,150,2013-10-05 09:43:00
4:51 AM,75.0,71.1,87,29.86,10.0,South,8.1,-,0.00,,Scattered Clouds,170,2013-10-05 09:51:00
5:02 AM,75.0,71.1,87,29.92,10.0,South,8.1,-,N/A,,Mostly Cloudy,170,2013-10-05 10:02:00
5:46 AM,73.4,71.6,94,29.92,10.0,SSE,6.9,-,N/A,,Scattered Clouds,150,2013-10-05 10:46:00
5:51 AM,73.9,71.1,91,29.88,10.0,SSE,5.8,-,N/A,,Scattered Clouds,160,2013-10-05 10:51:00
6:06 AM,73.9,71.1,91,29.92,10.0,SSE,5.8,-,N/A,,Mostly Cloudy,150,2013-10-05 11:06:00
6:25 AM,73.9,71.1,91,29.92,10.0,SE,8.1,-,N/A,,Overcast,140,2013-10-05 11:25:00
6:51 AM,75.0,71.1,87,29.88,10.0,SE,10.4,-,N/A,,Overcast,140,2013-10-05 11:51:00
7:01 AM,73.9,71.1,91,29.93,10.0,SE,9.2,-,N/A,,Overcast,140,2013-10-05 12:01:00
7:51 AM,73.9,71.1,91,29.88,10.0,SSE,11.5,-,N/A,,Overcast,160,2013-10-05 12:51:00
8:38 AM,75.0,71.1,87,29.94,10.0,SSE,12.7,-,N/A,,Overcast,160,2013-10-05 13:38:00
8:51 AM,75.9,71.1,85,29.90,10.0,SSE,10.4,-,N/A,,Overcast,150,2013-10-05 13:51:00
9:24 AM,78.1,71.1,79,29.95,10.0,SSE,11.5,-,N/A,,Mostly Cloudy,150,2013-10-05 14:24:00
9:51 AM,80.1,70.0,71,29.91,10.0,South,12.7,-,N/A,,Mostly Cloudy,180,2013-10-05 14:51:00
10:01 AM,79.0,70.0,74,29.96,10.0,South,12.7,-,N/A,,Overcast,170,2013-10-05 15:01:00
10:51 AM,81.0,70.0,69,29.93,10.0,South,6.9,-,N/A,,Overcast,180,2013-10-05 15:51:00
11:51 AM,81.0,70.0,69,29.96,10.0,NW,4.6,-,N/A,,Overcast,320,2013-10-05 16:51:00
12:51 PM,82.9,70.0,65,29.95,10.0,Variable,4.6,-,N/A,,Overcast,0,2013-10-05 17:51:00
1:51 PM,87.1,69.1,55,29.92,10.0,Calm,Calm,-,N/A,,Scattered Clouds,0,2013-10-05 18:51:00
2:51 PM,88.0,68.0,51,29.90,10.0,NNE,5.8,-,N/A,,Partly Cloudy,30,2013-10-05 19:51:00
3:51 PM,89.1,66.9,48,29.87,10.0,Calm,Calm,-,N/A,,Partly Cloudy,0,2013-10-05 20:51:00
4:51 PM,91.0,66.0,44,29.87,10.0,Calm,Calm,-,N/A,,Mostly Cloudy,0,2013-10-05 21:51:00
5:51 PM,89.1,66.0,46,29.86,10.0,East,6.9,-,N/A,,Mostly Cloudy,100,2013-10-05 22:51:00
6:51 PM,87.1,64.9,48,29.88,10.0,East,5.8,-,N/A,,Scattered Clouds,90,2013-10-05 23:51:00
7:19 PM,81.0,57.9,45,29.94,10.0,North,15.0,-,N/A,,Scattered Clouds,10,2013-10-06 00:19:00
7:51 PM,77.0,55.0,47,29.92,10.0,North,17.3,27.6,N/A,,Clear,10,2013-10-06 00:51:00
8:51 PM,73.9,51.1,45,29.96,10.0,NNE,18.4,-,N/A,,Clear,20,2013-10-06 01:51:00
9:51 PM,69.1,48.0,47,29.99,10.0,NNE,18.4,29.9,N/A,,Clear,20,2013-10-06 02:51:00
10:51 PM,66.9,46.9,49,30.01,10.0,NNE,18.4,-,N/A,,Mostly Cloudy,20,2013-10-06 03:51:00
11:51 PM,66.0,46.0,48,30.01,10.0,NNE,13.8,-,N/A,,Mostly Cloudy,30,2013-10-06 04:51:00